createdAt,value
2023-01-11T00:00:40.988Z,96942.00
2023-01-11T00:05:43.007Z,96931.00
2023-01-11T00:10:43.739Z,96916.00
2023-01-11T00:15:44.853Z,96915.00
2023-01-11T00:20:45.838Z,96916.00
2023-01-11T00:25:46.627Z,96908.00
2023-01-11T00:30:48.678Z,96906.00
2023-01-11T00:35:52.402Z,96889.00
2023-01-11T00:40:53.115Z,96897.00
2023-01-11T00:46:12.201Z,96894.00
2023-01-11T00:51:12.988Z,96895.00
2023-01-11T00:56:13.752Z,96875.00
2023-01-11T01:01:14.514Z,96880.00
2023-01-11T01:06:15.320Z,96873.00
2023-01-11T01:11:16.114Z,96862.00
2023-01-11T01:16:18.398Z,96858.00
2023-01-11T01:21:19.113Z,96856.00
2023-01-11T01:26:20.305Z,96861.00
2023-01-11T01:31:21.095Z,96865.00
2023-01-11T01:36:21.887Z,96868.00
2023-01-11T01:41:22.617Z,96860.00
2023-01-11T01:46:27.643Z,96854.00
2023-01-11T01:51:39.065Z,96862.00
2023-01-11T01:56:48.469Z,96856.00
2023-01-11T02:01:51.441Z,96848.00
2023-01-11T02:06:57.470Z,96849.00
2023-01-11T02:11:59.922Z,96842.00
2023-01-11T02:17:00.805Z,96840.00
2023-01-11T02:22:48.260Z,96831.00
2023-01-11T02:28:09.017Z,96819.00
2023-01-11T02:33:34.540Z,96813.00
2023-01-11T02:38:45.454Z,96819.00
2023-01-11T02:44:19.827Z,96801.00
2023-01-11T02:49:33.126Z,96803.00
2023-01-11T02:54:38.004Z,96799.00
2023-01-11T02:59:39.958Z,96783.00
2023-01-11T03:04:40.688Z,96776.00
2023-01-11T03:10:25.174Z,96778.00
2023-01-11T03:16:54.099Z,96782.00
2023-01-11T03:23:34.742Z,96777.00
2023-01-11T03:31:30.242Z,96762.00
2023-01-11T03:36:39.774Z,96768.00
2023-01-11T03:41:42.730Z,96779.00
2023-01-11T03:46:47.877Z,96764.00
2023-01-11T03:51:50.814Z,96761.00
2023-01-11T03:57:00.988Z,96751.00
2023-01-11T04:02:01.856Z,96747.00
2023-01-11T04:07:02.602Z,96747.00
2023-01-11T04:12:03.640Z,96741.00
2023-01-11T04:17:04.741Z,96732.00
2023-01-11T04:22:05.532Z,96734.00
2023-01-11T04:27:06.835Z,96736.00
2023-01-11T04:32:07.577Z,96735.00
2023-01-11T04:37:08.731Z,96727.00
2023-01-11T04:42:20.397Z,96720.00
2023-01-11T04:47:23.499Z,96704.00
2023-01-11T04:52:24.311Z,96707.00
2023-01-11T04:57:25.163Z,96710.00
2023-01-11T05:02:25.975Z,96710.00
2023-01-11T05:07:26.743Z,96720.00
2023-01-11T05:12:27.464Z,96714.00
2023-01-11T05:17:28.281Z,96697.00
2023-01-11T05:22:29.077Z,96698.00
2023-01-11T05:27:29.959Z,96685.00
2023-01-11T05:32:30.707Z,96681.00
2023-01-11T05:37:31.467Z,96678.00
2023-01-11T05:42:32.192Z,96673.00
2023-01-11T05:47:32.961Z,96674.00
2023-01-11T05:52:33.720Z,96669.00
2023-01-11T05:57:34.540Z,96672.00
2023-01-11T06:02:35.432Z,96662.00
2023-01-11T06:07:36.662Z,96652.00
2023-01-11T06:12:37.440Z,96651.00
2023-01-11T06:17:38.492Z,96639.00
2023-01-11T06:22:39.261Z,96643.00
2023-01-11T06:27:40.337Z,96643.00
2023-01-11T06:32:41.086Z,96643.00
2023-01-11T06:37:41.854Z,96631.00
2023-01-11T06:42:42.636Z,96637.00
2023-01-11T06:47:43.427Z,96623.00
2023-01-11T06:52:52.604Z,96628.00
2023-01-11T06:57:54.276Z,96622.00
2023-01-11T07:02:55.083Z,96625.00
2023-01-11T07:07:55.860Z,96621.00
2023-01-11T07:12:56.758Z,96621.00
2023-01-11T07:17:59.395Z,96624.00
2023-01-11T07:23:00.944Z,96627.00
2023-01-11T07:28:04.733Z,96629.00
2023-01-11T07:33:06.808Z,96634.00
2023-01-11T07:38:09.422Z,96634.00
2023-01-11T07:43:15.292Z,96631.00
2023-01-11T07:48:25.617Z,96632.00
2023-01-11T07:53:26.635Z,96632.00
2023-01-11T07:58:27.613Z,96637.00
2023-01-11T08:03:28.431Z,96637.00
2023-01-11T08:08:29.230Z,96641.00
2023-01-11T08:13:48.673Z,96635.00
2023-01-11T08:18:55.512Z,96624.00
2023-01-11T08:23:58.209Z,96634.00
2023-01-11T08:28:59.368Z,96622.00
2023-01-11T08:34:00.138Z,96637.00
2023-01-11T08:39:01.222Z,96626.00
2023-01-11T08:44:01.985Z,96627.00
2023-01-11T08:49:03.805Z,96631.00
2023-01-11T08:54:08.792Z,96642.00
2023-01-11T08:59:10.533Z,96641.00
2023-01-11T09:04:23.869Z,96645.00
2023-01-11T09:09:25.909Z,96644.00
2023-01-11T09:14:28.290Z,96655.00
2023-01-11T09:19:29.131Z,96640.00
2023-01-11T09:24:30.031Z,96643.00
2023-01-11T09:29:31.288Z,96653.00
2023-01-11T09:34:32.745Z,96642.00
2023-01-11T09:39:34.345Z,96660.00
2023-01-11T09:44:49.118Z,96667.00
2023-01-11T09:49:55.508Z,96675.00
2023-01-11T09:54:57.951Z,96668.00
2023-01-11T10:00:22.463Z,96688.00
2023-01-11T10:05:50.669Z,96685.00
2023-01-11T10:19:32.121Z,96713.00
2023-01-11T10:24:42.461Z,96692.00
2023-01-11T10:31:17.259Z,96693.00
2023-01-11T10:36:39.258Z,96691.00
2023-01-11T10:42:04.897Z,96683.00
2023-01-11T10:47:12.962Z,96709.00
2023-01-11T10:52:34.212Z,96690.00
2023-01-11T10:58:01.513Z,96699.00
2023-01-11T11:03:36.279Z,96686.00
2023-01-11T11:09:40.161Z,96668.00
2023-01-11T11:15:10.574Z,96675.00
2023-01-11T11:20:17.087Z,96680.00
2023-01-11T11:25:22.258Z,96687.00
2023-01-11T11:30:37.312Z,96693.00
2023-01-11T11:35:41.485Z,96710.00
2023-01-11T11:40:42.276Z,96724.00
2023-01-11T11:45:52.501Z,96724.00
2023-01-11T11:50:56.552Z,96712.00
2023-01-11T11:55:58.367Z,96724.00
2023-01-11T12:00:59.419Z,96740.00
2023-01-11T12:06:03.361Z,96748.00
2023-01-11T12:11:07.310Z,96713.00
2023-01-11T12:16:22.375Z,96734.00
2023-01-11T12:21:26.264Z,96735.00
2023-01-11T12:26:35.232Z,96729.00
2023-01-11T12:33:37.384Z,96738.00
2023-01-11T12:39:11.310Z,96739.00
2023-01-11T12:44:57.367Z,96734.00
2023-01-11T12:50:14.033Z,96753.00
2023-01-11T12:56:25.373Z,96775.00
2023-01-11T13:03:28.815Z,96757.00
2023-01-11T13:08:59.248Z,96752.00
2023-01-11T13:14:37.418Z,96755.00
2023-01-11T13:19:51.731Z,96750.00
2023-01-11T13:24:52.438Z,96758.00
2023-01-11T13:29:59.793Z,96766.00
2023-01-11T13:35:13.728Z,96779.00
2023-01-11T13:40:37.947Z,96796.00
2023-01-11T13:45:51.890Z,96795.00
2023-01-11T13:51:00.962Z,96800.00
2023-01-11T13:56:40.701Z,96813.00
2023-01-11T14:01:57.362Z,96807.00
2023-01-11T14:10:20.031Z,96817.00
2023-01-11T14:16:09.594Z,96839.00
2023-01-11T14:21:36.267Z,96835.00
2023-01-11T14:28:29.834Z,96872.00
2023-01-11T14:34:31.851Z,96874.00
2023-01-11T14:39:50.509Z,96872.00
2023-01-11T14:45:25.309Z,96881.00
2023-01-11T14:52:07.393Z,96901.00
2023-01-11T14:57:44.066Z,96905.00
2023-01-11T15:04:20.007Z,96929.00
2023-01-11T15:09:50.192Z,96931.00
2023-01-11T15:15:01.603Z,96943.00
2023-01-11T15:20:20.151Z,96951.00
2023-01-11T15:25:26.812Z,96951.00
2023-01-11T15:30:51.947Z,96969.00
2023-01-11T15:36:10.948Z,96972.00
2023-01-11T15:42:47.825Z,96975.00
2023-01-11T15:49:59.798Z,96979.00
2023-01-11T15:55:47.683Z,96984.00
2023-01-11T16:04:15.016Z,96989.00
2023-01-11T16:10:46.657Z,96992.00
2023-01-11T16:16:15.209Z,97008.00
2023-01-11T16:21:25.445Z,97001.00
2023-01-11T16:26:26.396Z,96999.00
2023-01-11T16:31:51.967Z,97012.00
2023-01-11T16:36:52.828Z,97011.00
2023-01-11T16:42:05.332Z,97021.00
2023-01-11T16:47:24.391Z,97029.00
2023-01-11T16:52:37.240Z,97036.00
2023-01-11T16:57:43.484Z,97049.00
2023-01-11T17:02:48.057Z,97054.00
2023-01-11T17:07:49.078Z,97069.00
2023-01-11T17:15:57.374Z,97054.00
2023-01-11T17:20:58.268Z,97057.00
2023-01-11T17:26:00.268Z,97086.00
2023-01-11T17:31:01.782Z,97087.00
2023-01-11T17:36:03.292Z,97102.00
2023-01-11T17:45:11.920Z,97101.00
2023-01-11T17:51:13.994Z,97102.00
2023-01-11T17:56:44.704Z,97126.00
2023-01-11T18:01:50.588Z,97127.00
2023-01-11T18:07:04.416Z,97131.00
2023-01-11T18:12:21.172Z,97125.00
2023-01-11T18:17:36.786Z,97141.00
2023-01-11T18:22:39.930Z,97139.00
2023-01-11T18:27:45.613Z,97145.00
2023-01-11T18:32:46.536Z,97153.00
2023-01-11T18:37:47.786Z,97157.00
2023-01-11T18:42:52.597Z,97151.00
2023-01-11T18:47:53.439Z,97150.00
2023-01-11T18:52:54.183Z,97146.00
2023-01-11T18:57:57.446Z,97155.00
2023-01-11T19:02:59.528Z,97157.00
2023-01-11T19:08:00.389Z,97154.00
2023-01-11T19:13:01.137Z,97146.00
2023-01-11T19:18:02.828Z,97155.00
2023-01-11T19:23:03.581Z,97156.00
2023-01-11T19:28:05.145Z,97160.00
2023-01-11T19:33:05.863Z,97163.00
2023-01-11T19:38:06.959Z,97167.00
2023-01-11T19:43:07.749Z,97174.00
2023-01-11T19:48:08.543Z,97188.00
2023-01-11T19:53:09.261Z,97187.00
2023-01-11T19:58:10.049Z,97183.00
2023-01-11T20:03:10.764Z,97171.00
2023-01-11T20:08:12.058Z,97179.00
2023-01-11T20:13:12.767Z,97181.00
2023-01-11T20:18:13.556Z,97174.00
2023-01-11T20:23:14.260Z,97172.00
2023-01-11T20:28:15.269Z,97173.00
2023-01-11T20:33:16.001Z,97180.00
2023-01-11T20:38:17.315Z,97171.00
2023-01-11T20:43:18.827Z,97162.00
2023-01-11T20:48:19.606Z,97176.00
2023-01-11T20:53:20.311Z,97161.00
2023-01-11T20:58:21.429Z,97170.00
2023-01-11T21:03:23.346Z,97153.00
2023-01-11T21:08:24.724Z,97152.00
2023-01-11T21:13:25.507Z,97147.00
2023-01-11T21:18:26.246Z,97133.00
2023-01-11T21:23:27.003Z,97125.00
2023-01-11T21:28:27.758Z,97131.00
2023-01-11T21:33:28.759Z,97127.00
2023-01-11T21:38:31.676Z,97121.00
2023-01-11T21:43:33.141Z,97125.00
2023-01-11T21:48:33.901Z,97120.00
2023-01-11T21:53:35.301Z,97124.00
2023-01-11T21:58:36.077Z,97128.00
2023-01-11T22:03:36.974Z,97126.00
2023-01-11T22:08:39.349Z,97137.00
2023-01-11T22:13:40.567Z,97124.00
2023-01-11T22:18:42.404Z,97125.00
2023-01-11T22:23:44.743Z,97132.00
2023-01-11T22:29:05.438Z,97135.00
2023-01-11T22:34:06.271Z,97135.00
2023-01-11T22:39:07.394Z,97120.00
2023-01-11T22:44:08.468Z,97120.00
2023-01-11T22:49:10.085Z,97121.00
2023-01-11T22:54:11.049Z,97115.00
2023-01-11T22:59:11.782Z,97112.00
2023-01-11T23:04:13.165Z,97092.00
2023-01-11T23:09:16.342Z,97094.00
2023-01-11T23:14:19.214Z,97100.00
2023-01-11T23:19:20.059Z,97089.00
2023-01-11T23:24:21.373Z,97088.00
2023-01-11T23:29:22.144Z,97068.00
2023-01-11T23:34:22.971Z,97067.00
2023-01-11T23:39:24.024Z,97059.00
2023-01-11T23:44:24.869Z,97048.00
2023-01-11T23:49:26.243Z,97054.00
2023-01-11T23:54:32.286Z,97052.00
2023-01-11T23:59:33.099Z,97052.00
